Time;durP1;ratioP1;P1;durP2;ratioP2;P2;SDS_P1;SDS_P2;PMS_P1;PMS_P2;Temp;Humidity;BMP_temperature;BMP_pressure;BME280_temperature;BME280_humidity;BME280_pressure;Samples;Min_cycle;Max_cycle;Signal;HPM_P1;HPM_P2
2023/05/27 00:00:20;;;;;;;11.33;9.70;;;;;;;16.21;78.15;100492.19;1806230;79;21346;-56
2023/05/27 00:03:26;;;;;;;15.18;11.08;;;;;;;16.23;78.15;100492.84;1806439;79;21358;-58
2023/05/27 00:06:31;;;;;;;13.18;11.38;;;;;;;16.24;78.17;100488.48;1806271;78;21350;-58
2023/05/27 00:09:37;;;;;;;11.78;10.53;;;;;;;16.25;78.12;100492.94;1806301;79;21445;-56
2023/05/27 00:12:44;;;;;;;13.15;10.68;;;;;;;16.25;78.07;100489.34;1806260;79;21319;-58
2023/05/27 00:15:50;;;;;;;13.20;11.83;;;;;;;16.25;78.06;100491.56;1806296;79;21467;-58
2023/05/27 00:18:56;;;;;;;13.32;11.90;;;;;;;16.28;78.24;100486.16;1806582;79;21323;-57
2023/05/27 00:22:01;;;;;;;13.35;11.12;;;;;;;16.30;78.42;100487.64;1806313;79;21326;-56
2023/05/27 00:25:08;;;;;;;12.90;11.50;;;;;;;16.35;78.57;100487.87;1806299;79;21704;-58
2023/05/27 00:28:14;;;;;;;13.75;12.28;;;;;;;16.39;78.64;100491.06;1806254;79;21874;-57
2023/05/27 00:31:19;;;;;;;11.90;10.70;;;;;;;16.38;78.59;100480.53;1806260;79;21330;-56
2023/05/27 00:34:27;;;;;;;16.60;11.60;;;;;;;16.39;78.59;100471.17;1806250;79;21836;-56
2023/05/27 00:37:32;;;;;;;13.22;11.88;;;;;;;16.39;78.60;100475.31;1806201;79;21378;-57
2023/05/27 00:40:37;;;;;;;19.52;16.37;;;;;;;16.40;78.55;100472.03;1806291;79;21381;-57
2023/05/27 00:43:43;;;;;;;21.57;18.55;;;;;;;16.39;78.59;100473.10;1806335;79;21820;-58
2023/05/27 00:46:53;;;;;;;14.70;13.13;;;;;;;16.36;78.53;100463.86;1806348;79;21350;-57
2023/05/27 00:50:00;;;;;;;14.63;11.78;;;;;;;16.34;78.44;100463.21;1806022;78;21255;-57
2023/05/27 00:53:05;;;;;;;15.98;12.40;;;;;;;16.33;78.53;100468.43;1806469;79;21354;-58
2023/05/27 00:56:15;;;;;;;13.65;12.07;;;;;;;16.30;78.61;100457.25;1806097;78;21322;-57
2023/05/27 00:59:22;;;;;;;14.55;12.13;;;;;;;16.28;78.57;100457.98;1806337;79;21877;-57
2023/05/27 01:02:27;;;;;;;15.25;12.05;;;;;;;16.24;78.58;100452.58;1806317;79;21346;-58
2023/05/27 01:05:33;;;;;;;13.53;11.83;;;;;;;16.21;78.59;100452.14;1806245;79;21870;-57
2023/05/27 01:08:52;;;;;;;23.07;11.93;;;;;;;16.15;78.56;100455.23;1806227;78;21330;-56
2023/05/27 01:12:07;;;;;;;15.70;11.43;;;;;;;16.10;78.48;100454.14;1806241;79;21331;-56
2023/05/27 01:15:15;;;;;;;12.60;11.33;;;;;;;16.01;78.42;100453.51;1806223;78;21314;-56
2023/05/27 01:18:22;;;;;;;14.63;11.65;;;;;;;15.95;78.43;100450.17;1806304;79;21914;-57
2023/05/27 01:21:30;;;;;;;13.48;11.97;;;;;;;15.91;78.49;100452.19;1806187;78;21378;-58
2023/05/27 01:24:37;;;;;;;14.07;12.10;;;;;;;15.85;78.52;100448.36;1806261;79;21389;-57
2023/05/27 01:27:44;;;;;;;12.58;10.60;;;;;;;15.82;78.63;100444.64;1806324;79;21327;-57
2023/05/27 01:30:52;;;;;;;13.53;10.98;;;;;;;15.80;78.79;100442.61;1806236;79;21689;-58
2023/05/27 01:34:09;;;;;;;14.18;11.25;;;;;;;15.80;78.92;100444.51;1806230;78;21330;-59
2023/05/27 01:37:18;;;;;;;13.85;11.93;;;;;;;15.78;79.06;100448.86;1806245;78;21338;-58
2023/05/27 01:40:23;;;;;;;12.60;10.85;;;;;;;15.76;79.15;100450.97;1806242;79;21322;-57
2023/05/27 01:43:29;;;;;;;13.13;11.73;;;;;;;15.75;79.23;100452.04;1806249;79;21346;-58
2023/05/27 01:46:37;;;;;;;12.90;10.48;;;;;;;15.73;79.31;100451.39;1806189;79;21863;-57
2023/05/27 01:49:42;;;;;;;12.93;11.25;;;;;;;15.72;79.38;100447.45;1806239;79;21346;-57
2023/05/27 01:52:48;;;;;;;11.88;10.68;;;;;;;15.71;79.43;100446.63;1806189;79;21152;-57
2023/05/27 01:55:55;;;;;;;13.78;10.80;;;;;;;15.72;79.50;100444.70;1806228;79;21338;-57
2023/05/27 01:59:00;;;;;;;13.35;10.93;;;;;;;15.73;79.58;100443.66;1811990;78;21353;-57
2023/05/27 02:02:07;;;;;;;12.90;10.60;;;;;;;15.76;79.68;100446.00;1817439;79;21305;-57
2023/05/27 02:05:14;;;;;;;11.80;10.60;;;;;;;15.79;79.71;100438.68;1817295;78;21357;-57
2023/05/27 02:08:21;;;;;;;13.85;10.88;;;;;;;15.81;79.74;100431.05;1817349;79;21319;-58
2023/05/27 02:11:28;;;;;;;12.00;10.70;;;;;;;15.82;79.72;100430.84;1817281;78;21318;-57
2023/05/27 02:14:38;;;;;;;16.07;11.00;;;;;;;15.86;79.73;100435.39;1817328;79;22145;-58
2023/05/27 02:17:46;;;;;;;13.22;10.82;;;;;;;15.85;79.66;100435.94;1817370;79;21319;-57
2023/05/27 02:20:55;;;;;;;15.25;10.95;;;;;;;15.87;79.62;100434.34;1817345;79;21350;-57
2023/05/27 02:24:00;;;;;;;12.28;10.45;;;;;;;15.87;79.58;100440.70;1817266;79;21834;-57
2023/05/27 02:27:06;;;;;;;12.68;10.98;;;;;;;15.89;79.64;100439.97;1817343;79;21341;-57
2023/05/27 02:30:12;;;;;;;13.13;10.43;;;;;;;15.90;79.64;100443.59;1817320;79;21325;-57
2023/05/27 02:33:18;;;;;;;12.95;11.08;;;;;;;15.92;79.70;100436.79;1793720;79;21334;-57
2023/05/27 02:36:26;;;;;;;14.53;10.95;;;;;;;15.96;79.82;100435.33;1817305;79;21368;-56
2023/05/27 02:39:35;;;;;;;13.85;11.35;;;;;;;16.01;79.91;100431.94;1817468;79;21394;-57
2023/05/27 02:42:41;;;;;;;13.18;10.72;;;;;;;16.06;79.98;100432.16;1817303;78;21309;-57
2023/05/27 02:45:47;;;;;;;14.95;11.22;;;;;;;16.10;79.99;100432.91;1817365;79;21381;-56
2023/05/27 02:48:55;;;;;;;14.20;11.20;;;;;;;16.16;80.11;100433.44;1817349;79;21910;-57
2023/05/27 02:52:02;;;;;;;15.18;11.60;;;;;;;16.25;80.29;100441.83;1817300;78;21361;-57
2023/05/27 02:55:08;;;;;;;13.72;11.43;;;;;;;16.35;80.39;100451.08;1817311;79;21342;-57
2023/05/27 02:58:14;;;;;;;12.37;10.75;;;;;;;16.44;80.49;100448.45;1817412;79;21362;-57
2023/05/27 03:01:21;;;;;;;15.95;11.57;;;;;;;16.54;80.60;100444.75;1806455;78;21406;-57
2023/05/27 03:04:28;;;;;;;13.28;11.70;;;;;;;16.66;80.73;100450.50;1804987;78;21343;-57
2023/05/27 03:07:36;;;;;;;15.20;11.18;;;;;;;16.76;80.71;100446.78;1784816;79;21408;-58
2023/05/27 03:10:41;;;;;;;12.45;10.43;;;;;;;16.86;80.71;100444.41;1804292;79;21359;-58
2023/05/27 03:13:48;;;;;;;13.32;10.50;;;;;;;16.93;80.59;100448.02;1804353;79;21390;-58
2023/05/27 03:16:55;;;;;;;13.05;10.48;;;;;;;16.97;80.48;100445.99;1804440;79;21319;-58
2023/05/27 03:20:00;;;;;;;12.28;10.20;;;;;;;17.01;80.52;100447.80;1804395;79;21855;-57
2023/05/27 03:23:06;;;;;;;14.23;10.98;;;;;;;17.05;80.55;100452.68;1803932;79;21362;-57
2023/05/27 03:26:12;;;;;;;10.82;9.73;;;;;;;17.12;80.58;100457.68;1803945;79;21370;-57
2023/05/27 03:29:17;;;;;;;11.88;9.73;;;;;;;17.20;80.55;100457.97;1803949;79;21336;-58
2023/05/27 03:32:22;;;;;;;14.38;11.12;;;;;;;17.27;80.49;100453.25;1803940;79;21324;-58
2023/05/27 03:35:27;;;;;;;14.28;9.85;;;;;;;17.36;80.54;100453.35;1785587;79;21389;-57
2023/05/27 03:38:33;;;;;;;10.60;9.50;;;;;;;17.47;80.66;100454.92;1803991;79;21829;-58
2023/05/27 03:41:41;;;;;;;10.28;9.15;;;;;;;17.58;80.63;100454.79;1804448;79;21347;-58
2023/05/27 03:44:47;;;;;;;10.35;9.25;;;;;;;17.67;80.58;100449.31;1787701;79;21422;-58
2023/05/27 03:47:56;;;;;;;11.57;9.03;;;;;;;17.76;80.51;100442.44;1804452;79;21385;-58
2023/05/27 03:51:02;;;;;;;14.00;9.43;;;;;;;17.86;80.41;100444.20;1804618;79;21765;-57
2023/05/27 03:54:09;;;;;;;11.78;9.65;;;;;;;17.96;80.38;100439.57;1804534;79;21336;-58
2023/05/27 03:57:15;;;;;;;12.58;9.40;;;;;;;18.08;80.45;100446.95;1804456;79;21354;-57
2023/05/27 04:00:24;;;;;;;12.07;9.43;;;;;;;18.21;80.53;100440.47;1799951;79;21335;-57
2023/05/27 04:03:31;;;;;;;11.53;10.28;;;;;;;18.29;80.38;100436.91;1796039;79;21840;-58
2023/05/27 04:06:38;;;;;;;11.33;9.28;;;;;;;18.38;80.23;100446.66;1792094;79;21745;-58
2023/05/27 04:09:45;;;;;;;10.00;8.60;;;;;;;18.48;80.17;100442.00;1792682;78;21331;-58
2023/05/27 04:12:52;;;;;;;10.48;8.90;;;;;;;18.60;80.22;100447.98;1792757;80;21864;-58
2023/05/27 04:15:59;;;;;;;10.05;8.88;;;;;;;18.72;80.26;100436.48;1790243;80;21387;-57
2023/05/27 04:19:07;;;;;;;10.82;8.63;;;;;;;18.85;80.30;100435.50;1791004;79;21386;-58
2023/05/27 04:22:11;;;;;;;9.48;8.48;;;;;;;18.98;80.27;100438.16;1791298;79;21854;-58
2023/05/27 04:25:16;;;;;;;9.73;8.13;;;;;;;19.12;80.26;100438.32;1791132;80;21358;-57
2023/05/27 04:28:24;;;;;;;10.40;8.48;;;;;;;19.26;80.20;100436.56;1791115;79;21355;-58
2023/05/27 04:31:30;;;;;;;12.65;8.05;;;;;;;19.39;80.09;100438.37;1790641;80;21437;-57
2023/05/27 04:34:41;;;;;;;13.75;8.45;;;;;;;19.53;80.07;100436.27;1790299;80;21386;-58
2023/05/27 04:37:47;;;;;;;10.48;8.23;;;;;;;19.67;80.05;100439.18;1790214;79;21682;-57
2023/05/27 04:40:57;;;;;;;11.57;7.58;;;;;;;19.82;80.09;100427.96;1790350;79;21358;-58
2023/05/27 04:44:19;;;;;;;11.30;6.72;;;;;;;19.99;80.22;100426.25;1720567;79;21243;-59
2023/05/27 04:47:25;;;;;;;7.00;6.00;;;;;;;20.20;80.22;100438.80;1773986;80;21202;-57
2023/05/27 04:50:32;;;;;;;7.70;6.22;;;;;;;20.34;80.16;100430.55;1761106;80;21259;-58
2023/05/27 04:53:41;;;;;;;9.30;6.20;;;;;;;20.46;80.15;100425.32;1760573;81;21768;-58
2023/05/27 04:56:47;;;;;;;10.15;5.60;;;;;;;20.53;80.06;100427.43;1773629;79;21203;-58
2023/05/27 05:03:20;;;;;;;7.95;5.95;;;;;;;20.63;79.96;100429.63;1796869;79;21216;-57
2023/05/27 05:06:20;;;;;;;8.33;5.95;;;;;;;20.70;80.00;100437.33;1795997;78;21207;-57
2023/05/27 05:09:25;;;;;;;9.63;6.55;;;;;;;20.72;80.00;100433.20;1799931;78;21188;-57
2023/05/27 05:12:35;;;;;;;6.65;5.70;;;;;;;20.79;80.05;100442.83;1800148;79;21200;-60
2023/05/27 05:15:43;;;;;;;8.80;5.67;;;;;;;20.86;80.01;100439.41;1799601;78;21271;-58
2023/05/27 05:18:49;;;;;;;9.48;6.60;;;;;;;20.88;79.86;100434.98;1799453;79;21760;-57
2023/05/27 05:21:56;;;;;;;10.30;6.70;;;;;;;20.86;79.74;100438.01;1799926;79;21196;-56
2023/05/27 05:25:02;;;;;;;9.28;6.28;;;;;;;20.83;79.72;100435.71;1800622;78;21211;-58
2023/05/27 05:28:10;;;;;;;8.75;6.65;;;;;;;20.83;79.75;100431.54;1800180;79;21231;-57
2023/05/27 05:31:16;;;;;;;15.35;7.35;;;;;;;20.87;79.81;100430.52;1800575;78;21247;-57
2023/05/27 05:34:22;;;;;;;9.35;6.55;;;;;;;20.93;79.81;100441.50;1800429;78;21717;-57
2023/05/27 05:37:29;;;;;;;7.03;6.28;;;;;;;20.98;79.71;100438.88;1825699;78;21382;-56
2023/05/27 05:40:33;;;;;;;7.10;6.40;;;;;;;21.06;79.76;100437.70;1800456;78;21184;-57
2023/05/27 05:43:40;;;;;;;9.20;6.42;;;;;;;21.15;79.85;100445.44;1800652;79;21192;-58
2023/05/27 05:46:50;;;;;;;10.32;6.72;;;;;;;21.26;79.94;100449.30;1801016;79;21220;-57
2023/05/27 05:49:59;;;;;;;8.88;7.50;;;;;;;21.36;79.81;100447.58;1800976;78;21803;-57
2023/05/27 05:53:04;;;;;;;7.83;6.60;;;;;;;21.47;79.78;100444.48;1800888;79;21200;-58
2023/05/27 05:56:13;;;;;;;10.30;6.40;;;;;;;21.55;79.67;100446.33;1800455;78;21766;-58
2023/05/27 05:59:20;;;;;;;8.75;6.67;;;;;;;21.63;79.65;100444.56;1799713;78;21705;-58
2023/05/27 06:02:25;;;;;;;10.15;6.60;;;;;;;21.71;79.67;100441.38;1798164;79;21765;-58
2023/05/27 06:05:32;;;;;;;8.23;6.92;;;;;;;21.81;79.66;100447.75;1794428;78;21233;-59
2023/05/27 06:08:36;;;;;;;8.83;6.87;;;;;;;21.85;79.60;100441.43;1794276;79;21251;-59
2023/05/27 06:11:44;;;;;;;7.92;6.83;;;;;;;21.93;79.61;100441.58;1794784;80;21867;-59
2023/05/27 06:14:53;;;;;;;7.20;6.22;;;;;;;21.99;79.55;100451.19;1794710;78;21346;-56
2023/05/27 06:18:01;;;;;;;10.23;6.15;;;;;;;22.04;79.50;100446.29;1794627;79;21373;-59
2023/05/27 06:21:08;;;;;;;8.35;6.08;;;;;;;22.11;79.47;100449.76;1794777;78;21874;-58
2023/05/27 06:24:34;;;;;;;8.70;6.90;;;;;;;22.16;79.43;100452.11;1797497;78;21383;-57
2023/05/27 06:27:44;;;;;;;10.25;6.25;;;;;;;22.24;79.39;100442.48;1794749;79;21390;-58
2023/05/27 06:30:50;;;;;;;7.35;5.58;;;;;;;22.33;79.33;100447.09;1795090;78;21899;-58
2023/05/27 06:33:57;;;;;;;7.55;5.60;;;;;;;22.43;79.19;100447.29;1800205;78;21341;-59
2023/05/27 06:37:03;;;;;;;7.65;5.55;;;;;;;22.52;79.04;100441.08;1767163;80;21332;-57
2023/05/27 06:40:10;;;;;;;7.83;5.50;;;;;;;22.65;78.98;100448.27;1781146;79;21241;-58
2023/05/27 06:43:16;;;;;;;8.13;5.37;;;;;;;22.76;78.79;100449.60;1775812;80;21355;-57
2023/05/27 06:46:35;;;;;;;5.72;4.97;;;;;;;22.86;78.53;100451.71;1781867;79;21366;-57
2023/05/27 06:49:46;;;;;;;9.08;5.45;;;;;;;22.96;78.30;100453.28;1764610;78;21760;-58
2023/05/27 06:52:54;;;;;;;7.90;4.80;;;;;;;23.02;78.12;100449.47;1793669;80;21200;-58
2023/05/27 06:56:04;;;;;;;5.55;4.83;;;;;;;23.06;78.01;100450.63;1793731;78;21757;-57
2023/05/27 06:59:27;;;;;;;8.75;5.22;;;;;;;23.06;77.64;100448.70;1793797;78;21196;-58
2023/05/27 07:02:33;;;;;;;10.18;6.22;;;;;;;23.10;77.62;100446.25;1793636;79;21185;-59
2023/05/27 07:05:39;;;;;;;8.40;5.75;;;;;;;23.14;77.46;100446.02;1792646;78;21195;-58
2023/05/27 07:08:50;;;;;;;8.03;6.12;;;;;;;23.18;77.34;100449.43;1793438;80;21177;-60
2023/05/27 07:11:58;;;;;;;8.50;5.85;;;;;;;23.23;77.18;100444.50;1793374;80;21212;-57
2023/05/27 07:15:08;;;;;;;6.92;5.78;;;;;;;23.25;77.01;100447.86;1766469;80;21601;-59
2023/05/27 07:18:14;;;;;;;8.23;5.80;;;;;;;23.32;77.02;100451.36;1767273;80;21189;-58
2023/05/27 07:21:21;;;;;;;8.45;5.47;;;;;;;23.40;76.89;100448.13;1766389;80;21201;-59
2023/05/27 07:24:29;;;;;;;6.50;5.35;;;;;;;23.51;76.86;100442.97;1766767;80;21825;-59
2023/05/27 07:27:36;;;;;;;7.40;6.00;;;;;;;23.57;76.53;100447.52;1767635;80;21209;-59
2023/05/27 07:30:42;;;;;;;9.78;6.20;;;;;;;23.60;76.38;100449.25;1766620;80;21205;-59
2023/05/27 07:33:48;;;;;;;6.33;5.72;;;;;;;23.63;76.24;100450.13;1763308;81;21366;-59
2023/05/27 07:36:56;;;;;;;6.12;5.55;;;;;;;23.70;76.18;100449.94;1763130;81;21346;-59
2023/05/27 07:40:04;;;;;;;7.65;6.08;;;;;;;23.78;76.14;100450.88;1763616;80;21405;-57
2023/05/27 07:43:10;;;;;;;9.30;6.00;;;;;;;23.89;76.00;100446.25;1763638;81;21911;-59
2023/05/27 07:46:16;;;;;;;10.43;6.47;;;;;;;23.99;75.67;100439.42;1763626;80;21362;-57
2023/05/27 07:49:21;;;;;;;7.58;5.90;;;;;;;24.07;75.44;100445.38;1763874;80;21366;-58
2023/05/27 07:52:37;;;;;;;9.33;6.30;;;;;;;24.17;75.35;100448.84;1756907;79;21381;-58
2023/05/27 07:55:51;;;;;;;9.20;5.35;;;;;;;24.23;75.26;100448.64;1780768;78;21216;-58
2023/05/27 07:58:57;;;;;;;7.28;5.40;;;;;;;24.30;75.15;100443.70;1794561;80;21339;-58
2023/05/27 08:02:04;;;;;;;6.08;5.17;;;;;;;24.31;74.80;100439.78;1794954;79;21902;-58
2023/05/27 08:05:10;;;;;;;7.22;5.05;;;;;;;24.36;74.67;100438.98;1793584;78;21418;-58
2023/05/27 08:08:24;;;;;;;8.65;5.17;;;;;;;24.42;74.49;100438.77;1750706;78;21393;-58
2023/05/27 08:11:40;;;;;;;7.10;5.03;;;;;;;24.45;74.13;100432.64;1795576;78;21425;-58
2023/05/27 08:15:02;;;;;;;7.50;5.37;;;;;;;24.47;73.81;100435.17;1763591;80;21753;-57
2023/05/27 08:18:25;;;;;;;7.83;5.00;;;;;;;24.54;73.75;100422.67;1764138;80;21440;-60
2023/05/27 08:21:36;;;;;;;5.50;4.80;;;;;;;24.66;73.57;100428.95;1740235;81;21459;-62
2023/05/27 08:24:49;;;;;;;5.72;4.60;;;;;;;24.78;73.24;100428.78;1699631;83;21860;-58
2023/05/27 08:28:12;;;;;;;8.95;5.03;;;;;;;24.86;73.07;100427.72;1735477;82;21244;-58
2023/05/27 08:31:20;;;;;;;8.43;5.10;;;;;;;24.93;72.78;100425.55;1790999;78;21370;-59
2023/05/27 08:34:27;;;;;;;5.83;4.83;;;;;;;25.00;72.67;100421.11;1795052;78;21390;-58
2023/05/27 08:37:33;;;;;;;6.97;5.15;;;;;;;25.11;72.58;100422.88;1794859;80;21339;-59
2023/05/27 08:40:39;;;;;;;4.67;4.28;;;;;;;25.23;72.34;100425.48;1785412;78;21828;-59
2023/05/27 08:43:46;;;;;;;6.92;4.95;;;;;;;25.32;71.91;100421.05;1763261;80;21357;-59
2023/05/27 08:46:58;;;;;;;5.60;4.42;;;;;;;25.38;71.60;100412.97;1766581;81;21457;-59
2023/05/27 08:50:07;;;;;;;4.40;4.00;;;;;;;25.45;71.27;100416.39;1767651;80;21247;-59
2023/05/27 08:53:12;;;;;;;7.45;4.35;;;;;;;25.53;71.03;100418.09;1767416;80;21585;-57
2023/05/27 08:56:18;;;;;;;8.00;4.35;;;;;;;25.60;70.85;100414.50;1767191;80;21736;-59
2023/05/27 08:59:26;;;;;;;6.05;3.83;;;;;;;25.73;70.67;100414.56;1766294;80;21521;-59
2023/05/27 09:02:32;;;;;;;5.33;3.92;;;;;;;25.83;70.24;100421.62;1766225;80;21235;-55
2023/05/27 09:05:39;;;;;;;9.15;4.47;;;;;;;25.88;69.86;100411.25;1766090;80;21525;-56
2023/05/27 09:08:44;;;;;;;4.65;3.72;;;;;;;25.89;69.46;100400.88;1749193;81;21199;-56
2023/05/27 09:11:50;;;;;;;6.55;3.87;;;;;;;25.95;69.21;100409.04;1766234;80;21227;-56
2023/05/27 09:14:58;;;;;;;4.90;3.72;;;;;;;26.02;68.86;100400.39;1780531;78;21823;-57
2023/05/27 09:18:07;;;;;;;4.03;3.60;;;;;;;26.13;68.71;100403.52;1805556;78;21346;-58
2023/05/27 09:21:14;;;;;;;6.45;3.52;;;;;;;26.15;68.34;100402.65;1792774;78;21502;-55
2023/05/27 09:24:20;;;;;;;4.65;3.55;;;;;;;26.21;68.20;100394.55;1793702;78;21697;-57
2023/05/27 09:27:27;;;;;;;4.37;3.33;;;;;;;26.30;67.90;100397.08;1794421;80;21825;-56
2023/05/27 09:30:32;;;;;;;5.75;3.37;;;;;;;26.41;67.61;100394.56;1777305;79;21835;-55
2023/05/27 09:33:41;;;;;;;4.60;3.70;;;;;;;26.58;67.25;100382.50;1795471;79;21402;-55
2023/05/27 09:36:52;;;;;;;4.90;3.30;;;;;;;26.73;66.93;100386.76;1786967;78;21370;-58
2023/05/27 09:39:59;;;;;;;4.50;3.33;;;;;;;26.77;66.43;100390.67;1759075;80;21205;-57
2023/05/27 09:43:05;;;;;;;4.95;3.45;;;;;;;26.78;66.11;100389.56;1805169;79;21882;-56
2023/05/27 09:46:13;;;;;;;5.65;3.30;;;;;;;26.82;65.84;100372.97;1767349;80;21761;-54
2023/05/27 09:49:21;;;;;;;4.92;3.42;;;;;;;26.85;65.63;100370.44;1806345;78;21658;-55
2023/05/27 09:52:31;;;;;;;5.20;3.90;;;;;;;26.86;65.29;100366.49;1801550;79;21399;-55
2023/05/27 09:55:38;;;;;;;5.17;3.33;;;;;;;26.88;64.92;100362.02;1794275;78;21313;-55
2023/05/27 09:58:44;;;;;;;5.70;3.33;;;;;;;26.84;64.56;100356.67;1789857;79;22225;-56
2023/05/27 10:01:50;;;;;;;7.25;4.28;;;;;;;26.80;64.31;100352.17;1797609;78;21228;-55
2023/05/27 10:04:55;;;;;;;4.67;3.22;;;;;;;26.85;64.16;100347.97;1755361;79;21234;-56
2023/05/27 10:08:03;;;;;;;5.00;3.45;;;;;;;26.87;63.89;100334.48;1793283;78;21187;-56
2023/05/27 10:11:10;;;;;;;5.22;3.33;;;;;;;26.88;63.51;100331.94;1809292;77;21372;-57
2023/05/27 10:14:16;;;;;;;5.72;3.60;;;;;;;26.93;63.18;100331.94;1803115;79;21329;-56
2023/05/27 10:17:23;;;;;;;5.62;3.50;;;;;;;27.04;62.94;100324.31;1811194;79;21190;-58
2023/05/27 10:20:37;;;;;;;6.30;3.25;;;;;;;27.22;62.70;100320.34;1815288;77;21429;-55
2023/05/27 10:23:42;;;;;;;4.07;3.33;;;;;;;27.40;62.31;100317.50;1790657;79;21231;-55
2023/05/27 10:26:53;;;;;;;6.65;3.65;;;;;;;27.49;61.88;100310.13;1809028;79;21203;-55
2023/05/27 10:30:05;;;;;;;5.00;3.42;;;;;;;27.48;61.43;100309.88;1795950;79;21218;-56
2023/05/27 10:33:12;;;;;;;;;;;;;;;27.53;61.20;100300.83;1816776;79;21800;-57
2023/05/27 10:36:19;;;;;;;8.85;3.52;;;;;;;27.78;61.12;100299.86;1794456;79;20668;-55
2023/05/27 10:39:26;;;;;;;5.92;3.30;;;;;;;27.95;60.81;100303.15;1783709;79;21210;-58
2023/05/27 10:42:33;;;;;;;6.72;3.52;;;;;;;28.00;60.40;100297.49;1797096;79;21737;-58
2023/05/27 10:45:41;;;;;;;7.25;3.42;;;;;;;27.97;59.74;100301.45;1813670;79;21246;-60
2023/05/27 10:48:48;;;;;;;4.90;3.05;;;;;;;27.97;59.44;100293.01;1813535;79;21196;-60
2023/05/27 10:51:58;;;;;;;8.83;3.60;;;;;;;28.02;59.10;100307.87;1814457;79;21807;-59
2023/05/27 10:55:03;;;;;;;4.87;3.20;;;;;;;27.96;58.64;100302.00;1814603;79;21220;-59
2023/05/27 10:58:10;;;;;;;5.42;3.52;;;;;;;27.96;58.43;100296.94;1814678;79;21595;-59
2023/05/27 11:01:18;;;;;;;4.62;3.20;;;;;;;27.84;57.82;100291.06;1806693;79;21740;-59
2023/05/27 11:04:26;;;;;;;4.45;3.77;;;;;;;27.74;57.50;100292.56;1808631;79;21356;-58
2023/05/27 11:07:27;;;;;;;4.72;3.83;;;;;;;27.66;57.16;100296.53;1789162;79;21278;-59
2023/05/27 11:10:32;;;;;;;5.10;3.30;;;;;;;27.67;57.19;100294.84;1774581;79;21362;-59
2023/05/27 11:13:49;;;;;;;6.92;4.28;;;;;;;27.72;57.05;100295.38;1784574;79;21855;-59
2023/05/27 11:16:56;;;;;;;5.83;3.50;;;;;;;27.79;56.87;100291.13;1776115;79;21398;-59
2023/05/27 11:20:05;;;;;;;5.25;3.95;;;;;;;27.83;56.49;100290.80;1772533;78;21841;-59
2023/05/27 11:23:12;;;;;;;4.67;4.00;;;;;;;27.76;56.14;100288.89;1787155;80;21394;-58
2023/05/27 11:26:29;;;;;;;6.15;3.40;;;;;;;27.65;55.90;100294.28;1788357;79;21409;-59
2023/05/27 11:29:36;;;;;;;8.88;3.90;;;;;;;27.58;55.68;100298.55;1797011;79;21376;-57
2023/05/27 11:32:42;;;;;;;8.50;4.08;;;;;;;27.33;55.28;100314.99;1803909;79;21199;-58
2023/05/27 11:35:48;;;;;;;7.78;4.37;;;;;;;26.98;54.96;100319.28;1802610;79;21390;-60
2023/05/27 11:39:07;;;;;;;7.85;3.95;;;;;;;26.62;54.67;100317.64;1793472;79;21224;-57
2023/05/27 11:42:15;;;;;;;7.22;4.25;;;;;;;26.21;54.29;100330.81;1804074;79;21330;-59
2023/05/27 11:45:29;;;;;;;6.10;3.80;;;;;;;25.59;53.96;100322.24;1749381;81;21795;-58
2023/05/27 11:48:35;;;;;;;7.65;4.03;;;;;;;25.16;54.03;100325.38;1788591;79;21420;-57
2023/05/27 11:51:43;;;;;;;4.10;3.70;;;;;;;24.74;53.88;100320.66;1803164;79;21392;-60
2023/05/27 11:54:49;;;;;;;6.33;3.80;;;;;;;24.44;53.90;100319.00;1800605;78;22230;-58
2023/05/27 11:57:57;;;;;;;7.28;3.87;;;;;;;24.18;53.92;100318.48;1799369;79;21189;-60
2023/05/27 12:01:04;;;;;;;6.85;4.33;;;;;;;23.99;53.98;100318.58;1799605;79;21216;-58
2023/05/27 12:04:10;;;;;;;5.10;4.28;;;;;;;23.81;54.07;100311.95;1799140;79;21203;-57
2023/05/27 12:07:17;;;;;;;6.78;4.20;;;;;;;23.68;54.11;100311.51;1765371;79;21732;-57
2023/05/27 12:10:22;;;;;;;12.58;4.28;;;;;;;23.55;54.16;100307.17;1766757;80;21205;-60
2023/05/27 12:13:31;;;;;;;5.90;3.75;;;;;;;23.44;54.20;100310.95;1805848;78;21404;-59
2023/05/27 12:16:38;;;;;;;6.22;4.10;;;;;;;23.40;54.32;100314.00;1804580;78;21410;-58
2023/05/27 12:19:46;;;;;;;7.95;4.45;;;;;;;23.41;54.36;100322.66;1801326;78;21355;-59
2023/05/27 12:22:55;;;;;;;8.95;4.55;;;;;;;23.35;54.31;100327.91;1800011;79;21378;-60
2023/05/27 12:26:01;;;;;;;8.75;5.10;;;;;;;23.18;54.23;100336.88;1790457;79;21233;-61
2023/05/27 12:29:08;;;;;;;6.20;4.28;;;;;;;23.04;54.30;100325.79;1799064;79;21331;-59
2023/05/27 12:32:15;;;;;;;10.35;5.03;;;;;;;22.99;54.38;100325.72;1788274;79;21744;-56
2023/05/27 12:35:22;;;;;;;11.57;5.08;;;;;;;22.97;54.47;100324.58;1803536;79;21875;-59
2023/05/27 12:38:27;;;;;;;5.60;4.12;;;;;;;23.00;54.57;100313.43;1803553;79;21930;-58
2023/05/27 12:41:32;;;;;;;6.35;4.62;;;;;;;23.09;54.63;100320.25;1803058;79;21358;-59
2023/05/27 12:44:38;;;;;;;7.83;4.47;;;;;;;23.15;54.59;100318.66;1777525;79;21435;-60
2023/05/27 12:47:45;;;;;;;7.72;4.35;;;;;;;23.21;54.60;100315.41;1791307;79;21252;-59
2023/05/27 12:50:52;;;;;;;6.00;4.08;;;;;;;23.30;54.60;100316.11;1799657;79;21370;-59
2023/05/27 12:53:59;;;;;;;5.97;4.08;;;;;;;23.41;54.62;100305.89;1803911;79;21456;-60
2023/05/27 12:57:06;;;;;;;7.90;4.53;;;;;;;23.55;54.64;100302.98;1782376;79;21217;-57
2023/05/27 13:00:12;;;;;;;7.78;4.28;;;;;;;23.72;54.53;100309.34;1773091;79;21867;-59
2023/05/27 13:03:19;;;;;;;4.85;4.03;;;;;;;23.84;54.39;100304.43;1767515;79;21362;-56
2023/05/27 13:06:27;;;;;;;6.58;3.98;;;;;;;23.98;54.29;100303.47;1774150;79;21385;-58
2023/05/27 13:09:32;;;;;;;5.92;3.67;;;;;;;24.12;54.19;100299.97;1774115;79;21996;-57
2023/05/27 13:12:40;;;;;;;5.90;3.72;;;;;;;24.25;54.00;100296.73;1761023;79;21211;-58
2023/05/27 13:15:46;;;;;;;5.62;3.52;;;;;;;24.35;53.83;100298.77;1761697;80;21223;-57
2023/05/27 13:18:54;;;;;;;5.67;3.45;;;;;;;24.46;53.78;100290.19;1761937;81;21200;-60
2023/05/27 13:22:01;;;;;;;6.83;3.22;;;;;;;24.57;53.66;100286.90;1762037;81;21219;-57
2023/05/27 13:25:08;;;;;;;6.80;3.70;;;;;;;24.66;53.51;100278.27;1787576;78;21340;-59
2023/05/27 13:28:15;;;;;;;10.95;4.10;;;;;;;24.73;53.44;100274.17;1792403;79;21347;-59
2023/05/27 13:31:22;;;;;;;7.33;3.80;;;;;;;24.78;53.20;100276.16;1791403;79;21666;-59
2023/05/27 13:34:29;;;;;;;6.62;3.58;;;;;;;24.76;52.98;100267.17;1791233;79;21382;-58
2023/05/27 13:37:35;;;;;;;4.37;3.17;;;;;;;24.74;52.83;100263.25;1791518;79;21852;-59
2023/05/27 13:40:42;;;;;;;4.72;3.27;;;;;;;24.74;52.73;100267.45;1787903;80;21370;-57
2023/05/27 13:43:50;;;;;;;5.47;3.60;;;;;;;24.72;52.57;100270.25;1785744;79;21347;-60
2023/05/27 13:46:58;;;;;;;4.53;3.50;;;;;;;24.65;52.48;100276.59;1786849;78;21386;-58
2023/05/27 13:50:06;;;;;;;5.28;3.40;;;;;;;24.52;52.38;100279.86;1792282;79;21319;-59
2023/05/27 13:53:11;;;;;;;4.83;3.55;;;;;;;24.41;52.37;100281.75;1792784;79;21347;-58
2023/05/27 13:56:18;;;;;;;5.12;3.58;;;;;;;24.33;52.37;100289.25;1781405;79;21327;-58
2023/05/27 13:59:23;;;;;;;6.83;3.00;;;;;;;24.21;52.31;100279.35;1774413;79;21772;-58
2023/05/27 14:02:30;;;;;;;4.83;3.42;;;;;;;24.14;52.32;100279.58;1799974;78;21966;-59
2023/05/27 14:05:37;;;;;;;4.75;3.00;;;;;;;24.09;52.35;100280.92;1773687;78;21756;-58
2023/05/27 14:08:44;;;;;;;5.53;3.12;;;;;;;24.03;52.35;100284.79;1761152;81;21220;-57
2023/05/27 14:11:53;;;;;;;5.35;3.37;;;;;;;24.01;52.37;100280.55;1802068;78;21376;-57
2023/05/27 14:15:00;;;;;;;7.45;3.35;;;;;;;23.98;52.41;100280.55;1801014;78;21342;-58
2023/05/27 14:18:05;;;;;;;6.20;3.65;;;;;;;23.99;52.40;100290.61;1802245;78;21335;-59
2023/05/27 14:21:10;;;;;;;5.85;3.40;;;;;;;24.00;52.39;100287.27;1806096;78;21911;-57
2023/05/27 14:24:16;;;;;;;7.87;3.70;;;;;;;24.05;52.47;100288.17;1788727;78;21683;-59
2023/05/27 14:27:24;;;;;;;5.05;3.22;;;;;;;24.08;52.41;100282.05;1767895;80;21196;-59